sensor_id;sensor_type;location;lat;lon;timestamp;P1;durP1;ratioP1;P2;durP2;ratioP2
43845;SDS011;32485;51.112;13.640;2022-08-01T00:02:07;3.10;;;1.77;;
43845;SDS011;32485;51.112;13.640;2022-08-01T00:04:34;3.90;;;1.80;;
43845;SDS011;32485;51.112;13.640;2022-08-01T00:07:02;3.20;;;2.28;;
43845;SDS011;32485;51.112;13.640;2022-08-01T00:09:29;3.72;;;2.00;;
43845;SDS011;32485;51.112;13.640;2022-08-01T00:11:56;2.50;;;1.77;;
43845;SDS011;32485;51.112;13.640;2022-08-01T00:14:24;3.22;;;2.00;;
43845;SDS011;32485;51.112;13.640;2022-08-01T00:16:51;3.85;;;2.25;;
43845;SDS011;32485;51.112;13.640;2022-08-01T00:19:19;4.60;;;1.80;;
43845;SDS011;32485;51.112;13.640;2022-08-01T00:21:47;3.90;;;1.92;;
43845;SDS011;32485;51.112;13.640;2022-08-01T00:24:14;3.35;;;1.75;;
43845;SDS011;32485;51.112;13.640;2022-08-01T00:26:41;2.45;;;1.55;;
43845;SDS011;32485;51.112;13.640;2022-08-01T00:29:08;3.45;;;2.10;;
43845;SDS011;32485;51.112;13.640;2022-08-01T00:31:35;2.83;;;1.75;;
43845;SDS011;32485;51.112;13.640;2022-08-01T00:34:02;3.22;;;1.77;;
43845;SDS011;32485;51.112;13.640;2022-08-01T00:36:31;2.97;;;1.85;;
43845;SDS011;32485;51.112;13.640;2022-08-01T00:38:58;3.50;;;2.20;;
43845;SDS011;32485;51.112;13.640;2022-08-01T00:41:25;3.80;;;2.30;;
43845;SDS011;32485;51.112;13.640;2022-08-01T00:43:52;3.33;;;1.70;;
43845;SDS011;32485;51.112;13.640;2022-08-01T00:46:20;3.05;;;1.95;;
43845;SDS011;32485;51.112;13.640;2022-08-01T00:48:47;3.20;;;1.90;;
43845;SDS011;32485;51.112;13.640;2022-08-01T00:51:14;2.72;;;1.92;;
43845;SDS011;32485;51.112;13.640;2022-08-01T00:53:44;4.13;;;2.85;;
43845;SDS011;32485;51.112;13.640;2022-08-01T00:56:11;2.92;;;1.80;;
43845;SDS011;32485;51.112;13.640;2022-08-01T00:58:39;2.75;;;1.88;;
43845;SDS011;32485;51.112;13.640;2022-08-01T01:01:07;5.85;;;2.15;;
43845;SDS011;32485;51.112;13.640;2022-08-01T01:03:34;2.78;;;2.08;;
43845;SDS011;32485;51.112;13.640;2022-08-01T01:06:05;3.88;;;2.15;;
43845;SDS011;32485;51.112;13.640;2022-08-01T01:08:46;3.25;;;1.95;;
43845;SDS011;32485;51.112;13.640;2022-08-01T01:11:29;2.97;;;1.90;;
43845;SDS011;32485;51.112;13.640;2022-08-01T01:14:04;3.15;;;1.90;;
43845;SDS011;32485;51.112;13.640;2022-08-01T01:16:43;3.30;;;2.03;;
43845;SDS011;32485;51.112;13.640;2022-08-01T01:19:13;6.35;;;1.80;;
43845;SDS011;32485;51.112;13.640;2022-08-01T01:21:53;3.50;;;2.58;;
43845;SDS011;32485;51.112;13.640;2022-08-01T01:25:08;3.47;;;1.98;;
43845;SDS011;32485;51.112;13.640;2022-08-01T01:27:49;3.25;;;2.22;;
43845;SDS011;32485;51.112;13.640;2022-08-01T01:30:40;4.25;;;2.00;;
43845;SDS011;32485;51.112;13.640;2022-08-01T01:33:12;3.20;;;1.90;;
43845;SDS011;32485;51.112;13.640;2022-08-01T01:35:42;2.28;;;1.63;;
43845;SDS011;32485;51.112;13.640;2022-08-01T01:38:14;3.63;;;1.92;;
43845;SDS011;32485;51.112;13.640;2022-08-01T01:40:46;3.25;;;1.83;;
43845;SDS011;32485;51.112;13.640;2022-08-01T01:43:15;3.03;;;1.73;;
43845;SDS011;32485;51.112;13.640;2022-08-01T01:45:45;3.55;;;2.20;;
43845;SDS011;32485;51.112;13.640;2022-08-01T01:48:15;3.53;;;1.83;;
43845;SDS011;32485;51.112;13.640;2022-08-01T01:50:46;4.05;;;1.90;;
43845;SDS011;32485;51.112;13.640;2022-08-01T01:53:15;3.83;;;2.05;;
43845;SDS011;32485;51.112;13.640;2022-08-01T01:55:46;4.53;;;2.03;;
43845;SDS011;32485;51.112;13.640;2022-08-01T01:58:19;2.72;;;2.00;;
43845;SDS011;32485;51.112;13.640;2022-08-01T02:00:50;2.70;;;1.83;;
43845;SDS011;32485;51.112;13.640;2022-08-01T02:03:21;4.47;;;2.00;;
43845;SDS011;32485;51.112;13.640;2022-08-01T02:05:50;3.28;;;2.10;;
43845;SDS011;32485;51.112;13.640;2022-08-01T02:08:19;2.78;;;1.98;;
43845;SDS011;32485;51.112;13.640;2022-08-01T02:10:48;3.30;;;1.90;;
43845;SDS011;32485;51.112;13.640;2022-08-01T02:13:34;6.03;;;1.95;;
43845;SDS011;32485;51.112;13.640;2022-08-01T02:18:32;3.63;;;1.88;;
43845;SDS011;32485;51.112;13.640;2022-08-01T02:20:59;3.75;;;2.10;;
43845;SDS011;32485;51.112;13.640;2022-08-01T02:23:31;2.95;;;2.10;;
43845;SDS011;32485;51.112;13.640;2022-08-01T02:26:00;3.08;;;2.00;;
43845;SDS011;32485;51.112;13.640;2022-08-01T02:28:29;2.83;;;2.17;;
43845;SDS011;32485;51.112;13.640;2022-08-01T02:31:01;3.58;;;2.00;;
43845;SDS011;32485;51.112;13.640;2022-08-01T02:33:34;5.15;;;2.95;;
43845;SDS011;32485;51.112;13.640;2022-08-01T02:36:07;2.95;;;1.80;;
43845;SDS011;32485;51.112;13.640;2022-08-01T02:38:37;4.35;;;2.30;;
43845;SDS011;32485;51.112;13.640;2022-08-01T02:41:11;3.45;;;2.30;;
43845;SDS011;32485;51.112;13.640;2022-08-01T02:43:43;3.88;;;2.30;;
43845;SDS011;32485;51.112;13.640;2022-08-01T02:46:17;4.53;;;2.40;;
43845;SDS011;32485;51.112;13.640;2022-08-01T02:48:55;3.15;;;2.20;;
43845;SDS011;32485;51.112;13.640;2022-08-01T02:51:27;8.40;;;3.05;;
43845;SDS011;32485;51.112;13.640;2022-08-01T02:53:55;4.68;;;2.80;;
43845;SDS011;32485;51.112;13.640;2022-08-01T02:56:26;4.18;;;2.95;;
43845;SDS011;32485;51.112;13.640;2022-08-01T02:59:01;5.60;;;3.28;;
43845;SDS011;32485;51.112;13.640;2022-08-01T03:01:32;5.45;;;3.33;;
43845;SDS011;32485;51.112;13.640;2022-08-01T03:04:02;5.53;;;2.80;;
43845;SDS011;32485;51.112;13.640;2022-08-01T03:06:30;4.47;;;3.33;;
43845;SDS011;32485;51.112;13.640;2022-08-01T03:08:59;5.10;;;3.03;;
43845;SDS011;32485;51.112;13.640;2022-08-01T03:11:28;4.05;;;2.72;;
43845;SDS011;32485;51.112;13.640;2022-08-01T03:13:57;3.92;;;2.92;;
43845;SDS011;32485;51.112;13.640;2022-08-01T03:16:27;4.55;;;2.72;;
43845;SDS011;32485;51.112;13.640;2022-08-01T03:18:57;4.25;;;2.40;;
43845;SDS011;32485;51.112;13.640;2022-08-01T03:21:27;5.15;;;3.20;;
43845;SDS011;32485;51.112;13.640;2022-08-01T03:23:56;6.68;;;2.90;;
43845;SDS011;32485;51.112;13.640;2022-08-01T03:28:55;5.13;;;3.33;;
43845;SDS011;32485;51.112;13.640;2022-08-01T03:31:25;5.90;;;2.65;;
43845;SDS011;32485;51.112;13.640;2022-08-01T03:33:53;6.88;;;2.78;;
43845;SDS011;32485;51.112;13.640;2022-08-01T03:36:23;6.53;;;2.60;;
43845;SDS011;32485;51.112;13.640;2022-08-01T03:38:55;3.92;;;2.85;;
43845;SDS011;32485;51.112;13.640;2022-08-01T03:41:26;7.07;;;3.08;;
43845;SDS011;32485;51.112;13.640;2022-08-01T03:44:00;4.53;;;2.92;;
43845;SDS011;32485;51.112;13.640;2022-08-01T03:46:36;4.22;;;2.42;;
43845;SDS011;32485;51.112;13.640;2022-08-01T03:49:11;3.28;;;2.72;;
43845;SDS011;32485;51.112;13.640;2022-08-01T03:51:45;4.10;;;2.53;;
43845;SDS011;32485;51.112;13.640;2022-08-01T03:54:15;7.93;;;3.00;;
43845;SDS011;32485;51.112;13.640;2022-08-01T03:56:47;4.03;;;2.58;;
43845;SDS011;32485;51.112;13.640;2022-08-01T03:59:16;3.20;;;2.50;;
43845;SDS011;32485;51.112;13.640;2022-08-01T04:01:44;4.40;;;2.80;;
43845;SDS011;32485;51.112;13.640;2022-08-01T04:04:12;4.45;;;2.92;;
43845;SDS011;32485;51.112;13.640;2022-08-01T04:06:40;10.20;;;2.92;;
43845;SDS011;32485;51.112;13.640;2022-08-01T04:09:10;4.60;;;2.72;;
43845;SDS011;32485;51.112;13.640;2022-08-01T04:11:38;3.70;;;2.83;;
43845;SDS011;32485;51.112;13.640;2022-08-01T04:14:06;4.38;;;3.08;;
43845;SDS011;32485;51.112;13.640;2022-08-01T04:16:33;4.07;;;2.42;;
43845;SDS011;32485;51.112;13.640;2022-08-01T04:19:00;4.15;;;2.95;;
43845;SDS011;32485;51.112;13.640;2022-08-01T04:21:28;5.18;;;2.83;;
43845;SDS011;32485;51.112;13.640;2022-08-01T04:23:59;6.40;;;2.78;;
43845;SDS011;32485;51.112;13.640;2022-08-01T04:26:32;4.10;;;2.58;;
43845;SDS011;32485;51.112;13.640;2022-08-01T04:29:02;3.85;;;2.28;;
43845;SDS011;32485;51.112;13.640;2022-08-01T04:31:32;3.42;;;2.58;;
43845;SDS011;32485;51.112;13.640;2022-08-01T04:34:02;3.70;;;2.47;;
43845;SDS011;32485;51.112;13.640;2022-08-01T04:36:31;3.90;;;2.42;;
43845;SDS011;32485;51.112;13.640;2022-08-01T04:39:02;4.10;;;2.85;;
43845;SDS011;32485;51.112;13.640;2022-08-01T04:41:33;4.38;;;2.63;;
43845;SDS011;32485;51.112;13.640;2022-08-01T04:44:00;5.57;;;2.83;;
43845;SDS011;32485;51.112;13.640;2022-08-01T04:46:29;6.93;;;3.28;;
43845;SDS011;32485;51.112;13.640;2022-08-01T04:48:58;4.10;;;2.80;;
43845;SDS011;32485;51.112;13.640;2022-08-01T04:51:26;4.15;;;2.78;;
43845;SDS011;32485;51.112;13.640;2022-08-01T04:53:53;4.22;;;3.05;;
43845;SDS011;32485;51.112;13.640;2022-08-01T04:56:22;5.72;;;3.05;;
43845;SDS011;32485;51.112;13.640;2022-08-01T04:58:50;3.97;;;2.70;;
43845;SDS011;32485;51.112;13.640;2022-08-01T05:01:38;5.47;;;2.75;;
43845;SDS011;32485;51.112;13.640;2022-08-01T05:04:05;4.65;;;2.67;;
43845;SDS011;32485;51.112;13.640;2022-08-01T05:06:32;7.10;;;2.80;;
43845;SDS011;32485;51.112;13.640;2022-08-01T05:08:59;6.63;;;3.25;;
43845;SDS011;32485;51.112;13.640;2022-08-01T05:11:26;3.13;;;2.45;;
43845;SDS011;32485;51.112;13.640;2022-08-01T05:13:54;6.68;;;3.00;;
43845;SDS011;32485;51.112;13.640;2022-08-01T05:16:21;3.92;;;2.50;;
43845;SDS011;32485;51.112;13.640;2022-08-01T05:18:48;5.10;;;2.45;;
43845;SDS011;32485;51.112;13.640;2022-08-01T05:21:15;3.97;;;2.28;;
43845;SDS011;32485;51.112;13.640;2022-08-01T05:23:42;3.85;;;2.38;;
43845;SDS011;32485;51.112;13.640;2022-08-01T05:26:10;4.57;;;2.67;;
43845;SDS011;32485;51.112;13.640;2022-08-01T05:28:38;4.07;;;2.63;;
43845;SDS011;32485;51.112;13.640;2022-08-01T05:31:07;4.97;;;2.50;;
43845;SDS011;32485;51.112;13.640;2022-08-01T05:33:34;3.17;;;2.25;;
43845;SDS011;32485;51.112;13.640;2022-08-01T05:36:02;3.22;;;2.10;;
43845;SDS011;32485;51.112;13.640;2022-08-01T05:38:29;3.75;;;2.45;;
43845;SDS011;32485;51.112;13.640;2022-08-01T05:40:56;3.47;;;2.40;;
43845;SDS011;32485;51.112;13.640;2022-08-01T05:43:23;5.45;;;2.45;;
43845;SDS011;32485;51.112;13.640;2022-08-01T05:45:51;3.28;;;2.47;;
43845;SDS011;32485;51.112;13.640;2022-08-01T05:48:19;4.05;;;2.60;;
43845;SDS011;32485;51.112;13.640;2022-08-01T05:50:46;3.83;;;2.25;;
43845;SDS011;32485;51.112;13.640;2022-08-01T05:53:14;7.93;;;3.25;;
43845;SDS011;32485;51.112;13.640;2022-08-01T05:55:41;4.10;;;2.38;;
43845;SDS011;32485;51.112;13.640;2022-08-01T05:58:09;2.83;;;1.80;;
43845;SDS011;32485;51.112;13.640;2022-08-01T06:00:36;5.15;;;2.10;;
43845;SDS011;32485;51.112;13.640;2022-08-01T06:03:03;3.20;;;2.28;;
43845;SDS011;32485;51.112;13.640;2022-08-01T06:05:31;2.10;;;1.63;;
43845;SDS011;32485;51.112;13.640;2022-08-01T06:07:58;4.15;;;2.38;;
43845;SDS011;32485;51.112;13.640;2022-08-01T06:10:25;2.72;;;2.08;;
43845;SDS011;32485;51.112;13.640;2022-08-01T06:12:52;4.38;;;2.10;;
43845;SDS011;32485;51.112;13.640;2022-08-01T06:15:19;4.93;;;2.55;;
43845;SDS011;32485;51.112;13.640;2022-08-01T06:17:47;3.55;;;2.05;;
43845;SDS011;32485;51.112;13.640;2022-08-01T06:20:14;4.03;;;2.40;;
43845;SDS011;32485;51.112;13.640;2022-08-01T06:22:42;2.45;;;1.80;;
43845;SDS011;32485;51.112;13.640;2022-08-01T06:25:09;3.15;;;1.88;;
43845;SDS011;32485;51.112;13.640;2022-08-01T06:27:36;2.38;;;1.67;;
43845;SDS011;32485;51.112;13.640;2022-08-01T06:30:04;3.53;;;1.55;;
43845;SDS011;32485;51.112;13.640;2022-08-01T06:32:32;2.28;;;1.55;;
43845;SDS011;32485;51.112;13.640;2022-08-01T06:35:00;2.50;;;1.75;;
43845;SDS011;32485;51.112;13.640;2022-08-01T06:37:28;3.30;;;1.60;;
43845;SDS011;32485;51.112;13.640;2022-08-01T06:39:57;3.00;;;1.93;;
43845;SDS011;32485;51.112;13.640;2022-08-01T06:42:27;3.95;;;2.55;;
43845;SDS011;32485;51.112;13.640;2022-08-01T06:44:56;3.07;;;2.57;;
43845;SDS011;32485;51.112;13.640;2022-08-01T06:47:23;4.97;;;2.58;;
43845;SDS011;32485;51.112;13.640;2022-08-01T06:49:50;4.75;;;2.67;;
43845;SDS011;32485;51.112;13.640;2022-08-01T06:52:17;3.95;;;3.15;;
43845;SDS011;32485;51.112;13.640;2022-08-01T06:54:44;5.00;;;3.10;;
43845;SDS011;32485;51.112;13.640;2022-08-01T06:57:13;3.20;;;2.90;;
43845;SDS011;32485;51.112;13.640;2022-08-01T06:59:40;4.15;;;3.28;;
43845;SDS011;32485;51.112;13.640;2022-08-01T07:02:08;3.75;;;3.00;;
43845;SDS011;32485;51.112;13.640;2022-08-01T07:04:36;6.43;;;3.92;;
43845;SDS011;32485;51.112;13.640;2022-08-01T07:07:03;3.97;;;2.85;;
43845;SDS011;32485;51.112;13.640;2022-08-01T07:09:30;4.60;;;3.20;;
43845;SDS011;32485;51.112;13.640;2022-08-01T07:11:57;4.22;;;3.40;;
43845;SDS011;32485;51.112;13.640;2022-08-01T07:14:25;4.03;;;3.13;;
43845;SDS011;32485;51.112;13.640;2022-08-01T07:16:52;4.97;;;3.35;;
43845;SDS011;32485;51.112;13.640;2022-08-01T07:19:20;3.97;;;3.20;;
43845;SDS011;32485;51.112;13.640;2022-08-01T07:21:47;6.90;;;3.20;;
43845;SDS011;32485;51.112;13.640;2022-08-01T07:24:14;3.47;;;3.00;;
43845;SDS011;32485;51.112;13.640;2022-08-01T07:26:43;4.60;;;3.63;;
43845;SDS011;32485;51.112;13.640;2022-08-01T07:29:13;3.55;;;2.80;;
43845;SDS011;32485;51.112;13.640;2022-08-01T07:31:41;3.58;;;2.88;;
43845;SDS011;32485;51.112;13.640;2022-08-01T07:34:08;3.55;;;3.00;;
43845;SDS011;32485;51.112;13.640;2022-08-01T07:36:35;4.90;;;3.15;;
43845;SDS011;32485;51.112;13.640;2022-08-01T07:39:03;4.47;;;2.92;;
43845;SDS011;32485;51.112;13.640;2022-08-01T07:41:30;3.25;;;2.78;;
43845;SDS011;32485;51.112;13.640;2022-08-01T07:43:57;4.57;;;2.67;;
43845;SDS011;32485;51.112;13.640;2022-08-01T07:46:24;3.83;;;2.42;;
43845;SDS011;32485;51.112;13.640;2022-08-01T07:48:53;8.40;;;2.67;;
43845;SDS011;32485;51.112;13.640;2022-08-01T07:51:20;3.63;;;2.50;;
43845;SDS011;32485;51.112;13.640;2022-08-01T07:53:47;3.78;;;2.72;;
43845;SDS011;32485;51.112;13.640;2022-08-01T07:56:14;3.65;;;2.25;;
43845;SDS011;32485;51.112;13.640;2022-08-01T07:58:41;2.58;;;2.05;;
43845;SDS011;32485;51.112;13.640;2022-08-01T08:01:08;3.10;;;2.22;;
43845;SDS011;32485;51.112;13.640;2022-08-01T08:03:35;3.78;;;2.55;;
43845;SDS011;32485;51.112;13.640;2022-08-01T08:06:04;6.05;;;1.95;;
43845;SDS011;32485;51.112;13.640;2022-08-01T08:08:31;3.75;;;1.80;;
43845;SDS011;32485;51.112;13.640;2022-08-01T08:10:59;3.15;;;1.90;;
43845;SDS011;32485;51.112;13.640;2022-08-01T08:13:26;4.57;;;2.00;;
43845;SDS011;32485;51.112;13.640;2022-08-01T08:15:54;3.65;;;2.08;;
43845;SDS011;32485;51.112;13.640;2022-08-01T08:18:23;4.88;;;2.28;;
43845;SDS011;32485;51.112;13.640;2022-08-01T08:20:50;2.50;;;1.90;;
43845;SDS011;32485;51.112;13.640;2022-08-01T08:23:18;3.75;;;1.70;;
43845;SDS011;32485;51.112;13.640;2022-08-01T08:26:03;2.38;;;1.63;;
43845;SDS011;32485;51.112;13.640;2022-08-01T08:28:31;2.47;;;1.40;;
43845;SDS011;32485;51.112;13.640;2022-08-01T08:30:58;4.28;;;1.58;;
43845;SDS011;32485;51.112;13.640;2022-08-01T08:33:25;2.25;;;1.30;;
43845;SDS011;32485;51.112;13.640;2022-08-01T08:35:52;3.10;;;1.20;;
43845;SDS011;32485;51.112;13.640;2022-08-01T08:38:21;1.23;;;0.90;;
43845;SDS011;32485;51.112;13.640;2022-08-01T08:40:50;2.85;;;1.40;;
43845;SDS011;32485;51.112;13.640;2022-08-01T08:43:18;3.38;;;1.73;;
43845;SDS011;32485;51.112;13.640;2022-08-01T08:45:46;3.13;;;1.77;;
43845;SDS011;32485;51.112;13.640;2022-08-01T08:48:14;3.80;;;2.00;;
43845;SDS011;32485;51.112;13.640;2022-08-01T08:50:41;1.80;;;1.30;;
43845;SDS011;32485;51.112;13.640;2022-08-01T08:55:40;1.90;;;1.20;;
43845;SDS011;32485;51.112;13.640;2022-08-01T08:58:09;5.40;;;1.50;;
43845;SDS011;32485;51.112;13.640;2022-08-01T09:00:38;2.58;;;1.67;;
43845;SDS011;32485;51.112;13.640;2022-08-01T09:03:06;3.55;;;1.70;;
43845;SDS011;32485;51.112;13.640;2022-08-01T09:05:33;2.28;;;1.55;;
43845;SDS011;32485;51.112;13.640;2022-08-01T09:08:00;17.45;;;2.92;;
43845;SDS011;32485;51.112;13.640;2022-08-01T09:10:27;3.45;;;1.38;;
43845;SDS011;32485;51.112;13.640;2022-08-01T09:13:06;6.93;;;1.98;;
43845;SDS011;32485;51.112;13.640;2022-08-01T09:15:44;2.42;;;1.52;;
43845;SDS011;32485;51.112;13.640;2022-08-01T09:18:27;2.90;;;2.10;;
43845;SDS011;32485;51.112;13.640;2022-08-01T09:21:07;2.03;;;1.40;;
43845;SDS011;32485;51.112;13.640;2022-08-01T09:23:42;1.90;;;1.30;;
43845;SDS011;32485;51.112;13.640;2022-08-01T09:26:12;2.00;;;1.30;;
43845;SDS011;32485;51.112;13.640;2022-08-01T09:28:42;3.33;;;2.03;;
43845;SDS011;32485;51.112;13.640;2022-08-01T09:31:11;2.25;;;1.40;;
43845;SDS011;32485;51.112;13.640;2022-08-01T09:33:49;2.40;;;2.00;;
43845;SDS011;32485;51.112;13.640;2022-08-01T09:36:19;2.20;;;1.52;;
43845;SDS011;32485;51.112;13.640;2022-08-01T09:38:47;2.55;;;1.55;;
43845;SDS011;32485;51.112;13.640;2022-08-01T09:41:16;2.53;;;1.67;;
43845;SDS011;32485;51.112;13.640;2022-08-01T09:43:48;1.42;;;1.10;;
43845;SDS011;32485;51.112;13.640;2022-08-01T09:46:16;2.15;;;1.00;;
43845;SDS011;32485;51.112;13.640;2022-08-01T09:51:32;2.58;;;0.90;;
43845;SDS011;32485;51.112;13.640;2022-08-01T09:56:35;4.57;;;1.40;;
43845;SDS011;32485;51.112;13.640;2022-08-01T09:59:06;0.98;;;0.70;;
43845;SDS011;32485;51.112;13.640;2022-08-01T10:04:10;2.38;;;0.98;;
43845;SDS011;32485;51.112;13.640;2022-08-01T10:06:39;1.00;;;0.73;;
43845;SDS011;32485;51.112;13.640;2022-08-01T10:09:09;0.93;;;0.75;;
43845;SDS011;32485;51.112;13.640;2022-08-01T10:11:39;1.60;;;0.80;;
43845;SDS011;32485;51.112;13.640;2022-08-01T10:14:08;2.80;;;0.70;;
43845;SDS011;32485;51.112;13.640;2022-08-01T10:16:38;2.42;;;0.80;;
43845;SDS011;32485;51.112;13.640;2022-08-01T10:19:06;1.73;;;0.75;;
43845;SDS011;32485;51.112;13.640;2022-08-01T10:21:34;2.47;;;0.80;;
43845;SDS011;32485;51.112;13.640;2022-08-01T10:24:03;3.42;;;0.90;;
43845;SDS011;32485;51.112;13.640;2022-08-01T10:26:33;1.52;;;0.60;;
43845;SDS011;32485;51.112;13.640;2022-08-01T10:29:01;0.95;;;0.60;;
43845;SDS011;32485;51.112;13.640;2022-08-01T10:31:31;1.47;;;0.73;;
43845;SDS011;32485;51.112;13.640;2022-08-01T10:33:58;2.10;;;0.57;;
43845;SDS011;32485;51.112;13.640;2022-08-01T10:36:26;0.85;;;0.70;;
43845;SDS011;32485;51.112;13.640;2022-08-01T10:38:54;1.10;;;0.70;;
43845;SDS011;32485;51.112;13.640;2022-08-01T10:41:22;1.25;;;0.75;;
43845;SDS011;32485;51.112;13.640;2022-08-01T10:43:52;51.53;;;6.32;;
43845;SDS011;32485;51.112;13.640;2022-08-01T10:46:19;1.10;;;0.70;;
43845;SDS011;32485;51.112;13.640;2022-08-01T10:48:49;9.15;;;1.55;;
43845;SDS011;32485;51.112;13.640;2022-08-01T10:51:24;4.97;;;0.80;;
43845;SDS011;32485;51.112;13.640;2022-08-01T10:53:53;1.02;;;0.60;;
43845;SDS011;32485;51.112;13.640;2022-08-01T10:56:22;0.75;;;0.38;;
43845;SDS011;32485;51.112;13.640;2022-08-01T10:58:54;1.63;;;0.70;;
43845;SDS011;32485;51.112;13.640;2022-08-01T11:01:29;1.55;;;0.65;;
43845;SDS011;32485;51.112;13.640;2022-08-01T11:04:06;1.83;;;0.55;;
43845;SDS011;32485;51.112;13.640;2022-08-01T11:09:30;3.33;;;0.70;;
43845;SDS011;32485;51.112;13.640;2022-08-01T11:12:05;1.38;;;0.50;;
43845;SDS011;32485;51.112;13.640;2022-08-01T11:17:53;0.73;;;0.40;;
43845;SDS011;32485;51.112;13.640;2022-08-01T11:20:22;2.38;;;0.80;;
43845;SDS011;32485;51.112;13.640;2022-08-01T11:28:37;2.17;;;0.50;;
43845;SDS011;32485;51.112;13.640;2022-08-01T11:33:55;0.70;;;0.47;;
43845;SDS011;32485;51.112;13.640;2022-08-01T11:36:24;1.65;;;0.55;;
43845;SDS011;32485;51.112;13.640;2022-08-01T11:39:10;2.05;;;0.50;;
43845;SDS011;32485;51.112;13.640;2022-08-01T11:41:44;0.70;;;0.50;;
43845;SDS011;32485;51.112;13.640;2022-08-01T11:44:15;0.52;;;0.52;;
43845;SDS011;32485;51.112;13.640;2022-08-01T11:46:57;3.42;;;0.77;;
43845;SDS011;32485;51.112;13.640;2022-08-01T11:49:34;2.92;;;0.70;;
43845;SDS011;32485;51.112;13.640;2022-08-01T11:52:25;3.10;;;0.70;;
43845;SDS011;32485;51.112;13.640;2022-08-01T11:54:56;2.67;;;1.08;;
43845;SDS011;32485;51.112;13.640;2022-08-01T11:57:32;1.45;;;0.63;;
43845;SDS011;32485;51.112;13.640;2022-08-01T12:00:00;2.10;;;0.90;;
43845;SDS011;32485;51.112;13.640;2022-08-01T12:02:31;0.70;;;0.50;;
43845;SDS011;32485;51.112;13.640;2022-08-01T12:05:00;2.85;;;0.60;;
43845;SDS011;32485;51.112;13.640;2022-08-01T12:07:33;3.20;;;0.60;;
43845;SDS011;32485;51.112;13.640;2022-08-01T12:10:03;1.83;;;0.70;;
43845;SDS011;32485;51.112;13.640;2022-08-01T12:12:33;0.88;;;0.50;;
43845;SDS011;32485;51.112;13.640;2022-08-01T12:15:03;1.08;;;0.60;;
43845;SDS011;32485;51.112;13.640;2022-08-01T12:17:33;0.85;;;0.57;;
43845;SDS011;32485;51.112;13.640;2022-08-01T12:20:03;3.83;;;0.68;;
43845;SDS011;32485;51.112;13.640;2022-08-01T12:22:34;1.50;;;0.68;;
43845;SDS011;32485;51.112;13.640;2022-08-01T12:25:05;1.17;;;0.70;;
43845;SDS011;32485;51.112;13.640;2022-08-01T12:27:34;1.70;;;0.65;;
43845;SDS011;32485;51.112;13.640;2022-08-01T12:30:04;1.08;;;0.70;;
43845;SDS011;32485;51.112;13.640;2022-08-01T12:32:35;1.45;;;0.80;;
43845;SDS011;32485;51.112;13.640;2022-08-01T12:35:04;1.40;;;0.60;;
43845;SDS011;32485;51.112;13.640;2022-08-01T12:37:35;0.98;;;0.70;;
43845;SDS011;32485;51.112;13.640;2022-08-01T12:40:13;1.63;;;0.60;;
43845;SDS011;32485;51.112;13.640;2022-08-01T12:42:43;4.28;;;0.88;;
43845;SDS011;32485;51.112;13.640;2022-08-01T12:45:12;0.88;;;0.60;;
43845;SDS011;32485;51.112;13.640;2022-08-01T12:47:41;2.58;;;0.63;;
43845;SDS011;32485;51.112;13.640;2022-08-01T12:50:11;1.30;;;0.63;;
43845;SDS011;32485;51.112;13.640;2022-08-01T12:52:41;3.47;;;0.60;;
43845;SDS011;32485;51.112;13.640;2022-08-01T12:55:10;1.15;;;0.63;;
43845;SDS011;32485;51.112;13.640;2022-08-01T12:57:40;0.95;;;0.50;;
43845;SDS011;32485;51.112;13.640;2022-08-01T13:00:16;1.73;;;0.50;;
43845;SDS011;32485;51.112;13.640;2022-08-01T13:02:47;1.00;;;0.50;;
43845;SDS011;32485;51.112;13.640;2022-08-01T13:05:16;0.82;;;0.55;;
43845;SDS011;32485;51.112;13.640;2022-08-01T13:07:46;0.47;;;0.40;;
43845;SDS011;32485;51.112;13.640;2022-08-01T13:10:23;0.30;;;0.30;;
43845;SDS011;32485;51.112;13.640;2022-08-01T13:12:53;2.72;;;0.52;;
43845;SDS011;32485;51.112;13.640;2022-08-01T13:15:26;0.85;;;0.50;;
43845;SDS011;32485;51.112;13.640;2022-08-01T13:17:57;1.73;;;0.47;;
43845;SDS011;32485;51.112;13.640;2022-08-01T13:23:14;1.00;;;0.43;;
43845;SDS011;32485;51.112;13.640;2022-08-01T13:25:46;0.30;;;0.30;;
43845;SDS011;32485;51.112;13.640;2022-08-01T13:28:19;0.82;;;0.38;;
43845;SDS011;32485;51.112;13.640;2022-08-01T13:30:52;4.32;;;0.40;;
43845;SDS011;32485;51.112;13.640;2022-08-01T13:33:22;1.85;;;0.50;;
43845;SDS011;32485;51.112;13.640;2022-08-01T13:35:51;0.40;;;0.30;;
43845;SDS011;32485;51.112;13.640;2022-08-01T13:38:21;2.05;;;0.40;;
43845;SDS011;32485;51.112;13.640;2022-08-01T13:41:09;0.93;;;0.57;;
43845;SDS011;32485;51.112;13.640;2022-08-01T13:43:36;1.55;;;0.50;;
43845;SDS011;32485;51.112;13.640;2022-08-01T13:46:03;2.85;;;0.70;;
43845;SDS011;32485;51.112;13.640;2022-08-01T13:48:30;3.95;;;0.50;;
43845;SDS011;32485;51.112;13.640;2022-08-01T13:50:59;1.05;;;0.40;;
43845;SDS011;32485;51.112;13.640;2022-08-01T13:53:28;1.60;;;0.60;;
43845;SDS011;32485;51.112;13.640;2022-08-01T13:55:55;1.87;;;0.57;;
43845;SDS011;32485;51.112;13.640;2022-08-01T13:58:22;1.38;;;0.50;;
43845;SDS011;32485;51.112;13.640;2022-08-01T14:00:49;1.85;;;0.57;;
43845;SDS011;32485;51.112;13.640;2022-08-01T14:03:17;2.38;;;0.90;;
43845;SDS011;32485;51.112;13.640;2022-08-01T14:05:45;0.45;;;0.40;;
43845;SDS011;32485;51.112;13.640;2022-08-01T14:08:12;1.52;;;0.63;;
43845;SDS011;32485;51.112;13.640;2022-08-01T14:10:40;0.77;;;0.50;;
43845;SDS011;32485;51.112;13.640;2022-08-01T14:13:08;2.10;;;0.80;;
43845;SDS011;32485;51.112;13.640;2022-08-01T14:15:35;1.15;;;0.60;;
43845;SDS011;32485;51.112;13.640;2022-08-01T14:18:02;2.95;;;0.70;;
43845;SDS011;32485;51.112;13.640;2022-08-01T14:20:30;0.95;;;0.70;;
43845;SDS011;32485;51.112;13.640;2022-08-01T14:22:57;2.13;;;0.70;;
43845;SDS011;32485;51.112;13.640;2022-08-01T14:25:25;1.23;;;0.60;;
43845;SDS011;32485;51.112;13.640;2022-08-01T14:27:53;1.52;;;0.60;;
43845;SDS011;32485;51.112;13.640;2022-08-01T14:30:20;3.75;;;0.88;;
43845;SDS011;32485;51.112;13.640;2022-08-01T14:32:47;0.80;;;0.60;;
43845;SDS011;32485;51.112;13.640;2022-08-01T14:35:14;1.00;;;0.60;;
43845;SDS011;32485;51.112;13.640;2022-08-01T14:37:41;1.05;;;0.60;;
43845;SDS011;32485;51.112;13.640;2022-08-01T14:40:08;0.90;;;0.50;;
43845;SDS011;32485;51.112;13.640;2022-08-01T14:42:36;1.00;;;0.60;;
43845;SDS011;32485;51.112;13.640;2022-08-01T14:45:06;1.35;;;1.00;;
43845;SDS011;32485;51.112;13.640;2022-08-01T14:47:35;1.40;;;0.60;;
43845;SDS011;32485;51.112;13.640;2022-08-01T14:50:03;1.67;;;0.55;;
43845;SDS011;32485;51.112;13.640;2022-08-01T14:52:32;1.13;;;0.50;;
43845;SDS011;32485;51.112;13.640;2022-08-01T14:55:00;2.00;;;0.60;;
43845;SDS011;32485;51.112;13.640;2022-08-01T14:57:27;0.70;;;0.60;;
43845;SDS011;32485;51.112;13.640;2022-08-01T14:59:54;0.63;;;0.50;;
43845;SDS011;32485;51.112;13.640;2022-08-01T15:02:23;1.40;;;0.60;;
43845;SDS011;32485;51.112;13.640;2022-08-01T15:04:50;1.67;;;0.50;;
43845;SDS011;32485;51.112;13.640;2022-08-01T15:07:18;1.17;;;0.60;;
43845;SDS011;32485;51.112;13.640;2022-08-01T15:09:45;0.60;;;0.50;;
43845;SDS011;32485;51.112;13.640;2022-08-01T15:12:12;0.65;;;0.50;;
43845;SDS011;32485;51.112;13.640;2022-08-01T15:14:40;0.90;;;0.60;;
43845;SDS011;32485;51.112;13.640;2022-08-01T15:17:16;0.80;;;0.60;;
43845;SDS011;32485;51.112;13.640;2022-08-01T15:19:47;2.58;;;0.60;;
43845;SDS011;32485;51.112;13.640;2022-08-01T15:22:15;1.45;;;0.73;;